createdAt,value
2022-08-25T00:01:37.860Z,22.11
2022-08-25T00:04:10.281Z,22.09
2022-08-25T00:06:38.444Z,22.06
2022-08-25T00:09:05.728Z,22.06
2022-08-25T00:11:34.028Z,22.03
2022-08-25T00:14:04.900Z,21.96
2022-08-25T00:16:32.413Z,21.91
2022-08-25T00:19:03.189Z,21.91
2022-08-25T00:21:31.781Z,21.88
2022-08-25T00:23:59.679Z,21.82
2022-08-25T00:26:27.552Z,21.73
2022-08-25T00:28:54.256Z,21.73
2022-08-25T00:31:38.500Z,21.74
2022-08-25T00:34:11.601Z,21.71
2022-08-25T00:36:38.567Z,21.71
2022-08-25T00:39:07.353Z,21.68
2022-08-25T00:41:35.380Z,21.66
2022-08-25T00:44:05.232Z,21.64
2022-08-25T00:46:38.969Z,21.60
2022-08-25T00:49:14.689Z,21.58
2022-08-25T00:51:55.102Z,21.50
2022-08-25T00:54:29.925Z,21.46
2022-08-25T00:56:59.138Z,21.41
2022-08-25T00:59:26.873Z,21.38
2022-08-25T01:01:55.050Z,21.33
2022-08-25T01:04:22.124Z,21.26
2022-08-25T01:06:49.242Z,21.21
2022-08-25T01:09:16.675Z,21.17
2022-08-25T01:11:44.783Z,21.16
2022-08-25T01:14:15.960Z,21.09
2022-08-25T01:16:43.740Z,21.01
2022-08-25T01:19:15.499Z,20.94
2022-08-25T01:21:48.077Z,20.91
2022-08-25T01:24:21.216Z,20.88
2022-08-25T01:26:47.725Z,20.82
2022-08-25T01:29:25.265Z,20.78
2022-08-25T01:31:57.351Z,20.77
2022-08-25T01:34:26.496Z,20.76
2022-08-25T01:36:54.435Z,20.72
2022-08-25T01:39:20.924Z,20.65
2022-08-25T01:41:58.594Z,20.62
2022-08-25T01:44:25.833Z,20.59
2022-08-25T01:46:52.913Z,20.57
2022-08-25T01:49:19.264Z,20.54
2022-08-25T01:51:53.405Z,20.51
2022-08-25T01:54:20.298Z,20.49
2022-08-25T01:56:46.995Z,20.45
2022-08-25T01:59:23.953Z,20.41
2022-08-25T02:01:50.562Z,20.37
2022-08-25T02:04:17.035Z,20.31
2022-08-25T02:06:48.141Z,20.28
2022-08-25T02:09:16.777Z,20.24
2022-08-25T02:11:46.470Z,20.21
2022-08-25T02:14:14.032Z,20.20
2022-08-25T02:16:44.647Z,20.19
2022-08-25T02:19:12.020Z,20.17
2022-08-25T02:21:39.396Z,20.08
2022-08-25T02:24:06.938Z,20.03
2022-08-25T02:26:36.144Z,20.02
2022-08-25T02:29:04.031Z,20.02
2022-08-25T02:31:30.453Z,20.02
2022-08-25T02:33:57.207Z,20.01
2022-08-25T02:36:23.832Z,20.04
2022-08-25T02:38:50.721Z,20.05
2022-08-25T02:41:20.917Z,20.05
2022-08-25T02:43:48.568Z,20.05
2022-08-25T02:46:17.910Z,20.08
2022-08-25T02:48:45.131Z,20.10
2022-08-25T02:51:12.378Z,20.09
2022-08-25T02:53:40.504Z,20.10
2022-08-25T02:56:09.723Z,20.08
2022-08-25T02:58:37.253Z,20.04
2022-08-25T03:01:04.861Z,20.04
2022-08-25T03:03:31.466Z,20.03
2022-08-25T03:05:57.867Z,20.02
2022-08-25T03:08:25.171Z,19.99
2022-08-25T03:10:52.056Z,20.01
2022-08-25T03:13:18.681Z,20.03
2022-08-25T03:15:46.144Z,20.01
2022-08-25T03:18:15.864Z,20.05
2022-08-25T03:20:44.481Z,20.06
2022-08-25T03:23:11.280Z,20.06
2022-08-25T03:26:00.631Z,20.08
2022-08-25T03:28:31.130Z,20.05
2022-08-25T03:30:57.564Z,20.01
2022-08-25T03:33:23.942Z,20.01
2022-08-25T03:35:50.402Z,20.00
2022-08-25T03:38:16.958Z,20.01
2022-08-25T03:40:43.348Z,20.00
2022-08-25T03:43:09.699Z,19.99
2022-08-25T03:45:41.364Z,19.96
2022-08-25T03:48:07.890Z,19.84
2022-08-25T03:50:34.590Z,19.78
2022-08-25T03:53:00.977Z,19.72
2022-08-25T03:55:27.606Z,19.68
2022-08-25T03:57:54.641Z,19.66
2022-08-25T04:00:22.853Z,19.60
2022-08-25T04:02:49.553Z,19.55
2022-08-25T04:05:16.071Z,19.51
2022-08-25T04:07:42.463Z,19.49
2022-08-25T04:10:10.401Z,19.43
2022-08-25T04:12:37.622Z,19.41
2022-08-25T04:15:05.580Z,19.41
2022-08-25T04:17:32.329Z,19.36
2022-08-25T04:19:59.345Z,19.29
2022-08-25T04:22:25.799Z,19.28
2022-08-25T04:24:55.232Z,19.28
2022-08-25T04:27:21.575Z,19.25
2022-08-25T04:29:47.987Z,19.22
2022-08-25T04:32:14.443Z,19.20
2022-08-25T04:34:41.383Z,19.18
2022-08-25T04:37:07.882Z,19.14
2022-08-25T04:39:34.320Z,19.12
2022-08-25T04:42:01.450Z,19.13
2022-08-25T04:44:29.013Z,19.12
2022-08-25T04:46:55.535Z,19.11
2022-08-25T04:49:21.925Z,19.08
2022-08-25T04:51:48.303Z,19.03
2022-08-25T04:54:22.300Z,19.01
2022-08-25T04:56:50.352Z,18.93
2022-08-25T04:59:21.222Z,18.94
2022-08-25T05:01:50.110Z,18.96
2022-08-25T05:04:28.262Z,18.99
2022-08-25T05:06:56.677Z,19.01
2022-08-25T05:09:23.805Z,19.01
2022-08-25T05:11:51.921Z,19.02
2022-08-25T05:14:21.602Z,19.06
2022-08-25T05:16:52.052Z,19.11
2022-08-25T05:19:18.706Z,19.18
2022-08-25T05:21:45.061Z,19.24
2022-08-25T05:24:11.454Z,19.33
2022-08-25T05:26:38.327Z,19.42
2022-08-25T05:29:06.143Z,19.48
2022-08-25T05:31:36.334Z,19.55
2022-08-25T05:34:08.832Z,19.60
2022-08-25T05:36:35.761Z,19.64
2022-08-25T05:39:02.244Z,19.68
2022-08-25T05:41:30.611Z,19.77
2022-08-25T05:43:57.660Z,19.92
2022-08-25T05:46:24.628Z,20.01
2022-08-25T05:48:51.887Z,20.16
2022-08-25T05:51:21.495Z,20.32
2022-08-25T05:53:50.657Z,20.49
2022-08-25T05:56:18.313Z,20.68
2022-08-25T05:58:45.803Z,21.01
2022-08-25T06:01:44.937Z,21.81
2022-08-25T06:04:12.851Z,22.78
2022-08-25T06:06:39.635Z,23.20
2022-08-25T06:09:08.550Z,23.46
2022-08-25T06:11:36.166Z,23.03
2022-08-25T06:14:02.641Z,22.58
2022-08-25T06:16:29.178Z,22.30
2022-08-25T06:18:55.578Z,22.14
2022-08-25T06:21:22.003Z,22.07
2022-08-25T06:23:49.199Z,22.00
2022-08-25T06:26:21.297Z,21.95
2022-08-25T06:28:49.322Z,21.88
2022-08-25T06:31:15.796Z,21.80
2022-08-25T06:33:42.918Z,21.82
2022-08-25T06:36:09.677Z,21.94
2022-08-25T06:38:36.694Z,22.03
2022-08-25T06:41:05.517Z,22.13
2022-08-25T06:43:35.539Z,22.23
2022-08-25T06:46:14.359Z,22.31
2022-08-25T06:48:41.500Z,22.38
2022-08-25T06:51:10.220Z,22.57
2022-08-25T06:53:41.334Z,22.69
2022-08-25T06:56:08.338Z,22.74
2022-08-25T06:58:35.339Z,22.85
2022-08-25T07:01:20.024Z,22.95
2022-08-25T07:03:47.511Z,23.15
2022-08-25T07:06:14.870Z,23.27
2022-08-25T07:08:45.870Z,23.40
2022-08-25T07:11:16.319Z,23.47
2022-08-25T07:13:44.684Z,23.65
2022-08-25T07:16:11.369Z,23.76
2022-08-25T07:18:38.376Z,24.00
2022-08-25T07:21:05.720Z,24.20
2022-08-25T07:23:35.432Z,24.30
2022-08-25T07:26:36.307Z,24.36
2022-08-25T07:29:00.781Z,24.45
2022-08-25T07:31:29.482Z,24.68
2022-08-25T07:34:14.707Z,24.79
2022-08-25T07:36:43.061Z,24.99
2022-08-25T07:39:09.540Z,24.90
2022-08-25T07:41:37.807Z,24.94
2022-08-25T07:44:05.635Z,24.87
2022-08-25T07:46:32.688Z,24.99
2022-08-25T07:49:00.257Z,25.14
2022-08-25T07:53:53.967Z,25.36
2022-08-25T07:56:20.316Z,25.61
2022-08-25T07:58:47.672Z,25.80
2022-08-25T08:01:19.706Z,25.94
2022-08-25T08:03:50.058Z,25.97
2022-08-25T08:06:20.956Z,26.00
2022-08-25T08:08:49.509Z,26.11
2022-08-25T08:11:26.539Z,26.36
2022-08-25T08:13:55.268Z,26.62
2022-08-25T08:16:24.827Z,26.65
2022-08-25T08:18:51.746Z,26.79
2022-08-25T08:21:26.105Z,26.92
2022-08-25T08:23:58.951Z,26.84
2022-08-25T08:26:36.391Z,27.07
2022-08-25T08:29:08.794Z,27.27
2022-08-25T08:31:36.465Z,27.33
2022-08-25T08:34:03.715Z,27.42
2022-08-25T08:36:30.089Z,27.73
2022-08-25T08:38:56.440Z,27.94
2022-08-25T08:44:46.203Z,28.38
2022-08-25T08:47:40.018Z,28.50
2022-08-25T08:50:27.971Z,28.70
2022-08-25T08:53:15.696Z,28.79
2022-08-25T08:55:48.325Z,29.00
2022-08-25T08:58:28.620Z,29.10
2022-08-25T09:00:58.202Z,29.10
2022-08-25T09:03:31.791Z,29.18
2022-08-25T09:06:03.406Z,29.11
2022-08-25T09:08:33.437Z,29.39
2022-08-25T09:11:18.911Z,29.61
2022-08-25T09:14:18.415Z,29.72
2022-08-25T09:16:55.324Z,29.71
2022-08-25T09:19:28.861Z,30.08
2022-08-25T09:22:04.465Z,30.23
2022-08-25T09:25:08.834Z,30.24
2022-08-25T09:28:05.939Z,30.24
2022-08-25T09:30:58.021Z,30.41
2022-08-25T09:33:27.030Z,30.73
2022-08-25T09:35:55.066Z,30.79
2022-08-25T09:38:26.166Z,30.96
2022-08-25T09:40:57.288Z,31.30
2022-08-25T09:43:40.270Z,31.49
2022-08-25T09:46:10.438Z,31.45
2022-08-25T09:49:07.718Z,31.47
2022-08-25T09:51:43.073Z,31.42
2022-08-25T09:54:12.635Z,31.59
2022-08-25T09:56:52.717Z,31.82
2022-08-25T09:59:35.184Z,32.14
2022-08-25T10:02:05.873Z,32.28
2022-08-25T10:04:40.092Z,32.42
2022-08-25T10:07:25.325Z,32.29
2022-08-25T10:09:56.747Z,32.37
2022-08-25T10:12:31.105Z,32.54
2022-08-25T10:14:57.542Z,32.75
2022-08-25T10:17:29.980Z,33.02
2022-08-25T10:20:11.528Z,32.81
2022-08-25T10:22:40.661Z,33.12
2022-08-25T10:25:10.695Z,33.05
2022-08-25T10:27:58.453Z,33.27
2022-08-25T10:30:42.861Z,33.51
2022-08-25T10:33:30.946Z,33.53
2022-08-25T10:36:04.527Z,33.53
2022-08-25T10:38:47.554Z,33.74
2022-08-25T10:41:35.711Z,33.95
2022-08-25T10:44:46.521Z,34.19
2022-08-25T10:47:31.569Z,34.20
2022-08-25T10:50:23.491Z,34.41
2022-08-25T10:53:19.038Z,34.47
2022-08-25T10:55:55.178Z,34.61
2022-08-25T10:58:36.947Z,34.85
2022-08-25T11:01:28.846Z,34.93
2022-08-25T11:04:04.899Z,34.87
2022-08-25T11:06:53.062Z,34.95
2022-08-25T11:09:33.115Z,34.97
2022-08-25T11:12:08.665Z,34.97
2022-08-25T11:14:40.183Z,34.82
2022-08-25T11:17:23.979Z,34.63
2022-08-25T11:19:57.466Z,34.97
2022-08-25T11:22:45.944Z,35.21
2022-08-25T11:25:26.087Z,35.35
2022-08-25T11:28:03.083Z,35.27
2022-08-25T11:30:30.275Z,35.35
2022-08-25T11:32:57.764Z,35.32
2022-08-25T11:35:33.958Z,35.31
2022-08-25T11:38:12.446Z,35.60
2022-08-25T11:41:12.996Z,35.76
2022-08-25T11:43:54.651Z,35.62
2022-08-25T11:46:58.672Z,35.47
2022-08-25T11:49:37.451Z,35.72
2022-08-25T11:52:30.754Z,35.74
2022-08-25T11:55:14.805Z,35.96
2022-08-25T11:57:42.678Z,36.23
2022-08-25T12:00:36.989Z,36.16
2022-08-25T12:03:45.963Z,36.13
2022-08-25T12:06:29.432Z,36.22
2022-08-25T12:09:05.345Z,36.17
2022-08-25T12:11:37.685Z,35.79
2022-08-25T12:14:13.735Z,35.34
2022-08-25T12:17:04.668Z,35.43
2022-08-25T12:19:34.085Z,35.41
2022-08-25T12:22:04.086Z,35.18
2022-08-25T12:24:47.546Z,34.65
2022-08-25T12:27:28.139Z,34.49
2022-08-25T12:30:18.482Z,34.69
2022-08-25T12:33:17.612Z,34.77
2022-08-25T12:35:57.788Z,34.87
2022-08-25T12:38:43.574Z,35.52
2022-08-25T12:41:18.523Z,36.12
2022-08-25T12:43:48.016Z,36.60
2022-08-25T12:46:23.755Z,36.67
2022-08-25T12:49:01.515Z,36.52
2022-08-25T12:51:33.881Z,36.57
2022-08-25T12:54:22.444Z,37.01
2022-08-25T12:56:59.228Z,36.98
2022-08-25T12:59:37.430Z,36.87
2022-08-25T13:02:15.778Z,36.94
2022-08-25T13:05:01.554Z,36.79
2022-08-25T13:07:48.047Z,36.98
2022-08-25T13:10:42.511Z,37.19
2022-08-25T13:13:08.969Z,37.34
2022-08-25T13:15:41.764Z,37.60
2022-08-25T13:18:26.347Z,37.39
2022-08-25T13:21:13.528Z,37.34
2022-08-25T13:23:44.041Z,37.37
2022-08-25T13:26:15.354Z,37.54
2022-08-25T13:28:50.385Z,37.76
2022-08-25T13:31:28.142Z,37.53
2022-08-25T13:34:00.074Z,37.98
2022-08-25T13:36:54.297Z,38.15
2022-08-25T13:39:45.703Z,38.25
2022-08-25T13:42:17.487Z,38.32
2022-08-25T13:44:51.927Z,38.15
2022-08-25T13:47:43.786Z,38.10
2022-08-25T13:50:27.030Z,37.87
2022-08-25T13:53:21.493Z,37.86
2022-08-25T13:55:53.072Z,37.78
2022-08-25T13:58:39.487Z,37.77
2022-08-25T14:01:22.748Z,37.73
2022-08-25T14:04:39.525Z,38.06
2022-08-25T14:07:23.116Z,38.50
2022-08-25T14:09:52.344Z,38.56
2022-08-25T14:12:44.823Z,38.38
2022-08-25T14:15:17.642Z,38.47
2022-08-25T14:17:48.889Z,38.57
2022-08-25T14:20:28.695Z,38.31
2022-08-25T14:23:09.793Z,38.21
2022-08-25T14:25:36.848Z,38.34
2022-08-25T14:28:13.809Z,38.58
2022-08-25T14:30:46.090Z,38.84
2022-08-25T14:33:14.301Z,38.75
2022-08-25T14:35:43.555Z,38.69
2022-08-25T14:38:11.435Z,38.68
2022-08-25T14:40:39.362Z,39.02
2022-08-25T14:43:10.115Z,38.61
2022-08-25T14:45:40.088Z,38.21
2022-08-25T14:48:10.439Z,38.35
2022-08-25T14:50:37.381Z,38.37
2022-08-25T14:53:03.981Z,38.36
2022-08-25T14:55:32.193Z,38.51
2022-08-25T14:57:59.360Z,38.49
2022-08-25T15:00:26.399Z,38.42
2022-08-25T15:02:54.829Z,38.47
2022-08-25T15:05:26.878Z,38.41
2022-08-25T15:08:13.102Z,38.37
2022-08-25T15:10:40.275Z,38.32
2022-08-25T15:13:06.970Z,37.97
2022-08-25T15:15:38.036Z,37.25
2022-08-25T15:18:05.342Z,36.81
2022-08-25T15:20:32.646Z,36.45
2022-08-25T15:22:59.050Z,36.09
2022-08-25T15:25:25.528Z,36.32
2022-08-25T15:27:52.016Z,36.59
2022-08-25T15:30:18.523Z,36.50
2022-08-25T15:32:44.921Z,36.17
2022-08-25T15:35:15.198Z,35.79
2022-08-25T15:37:42.125Z,35.39
2022-08-25T15:40:09.112Z,35.02
2022-08-25T15:42:37.772Z,34.77
2022-08-25T15:45:10.354Z,34.55
2022-08-25T15:47:36.944Z,34.44
2022-08-25T15:50:14.527Z,34.31
2022-08-25T15:52:46.673Z,34.03
2022-08-25T15:55:14.916Z,33.82
2022-08-25T15:57:42.289Z,33.57
2022-08-25T16:00:13.699Z,33.82
2022-08-25T16:02:44.739Z,34.04
2022-08-25T16:05:12.068Z,34.16
2022-08-25T16:07:40.115Z,34.21
2022-08-25T16:10:07.044Z,34.09
2022-08-25T16:12:33.489Z,34.18
2022-08-25T16:14:59.908Z,34.20
2022-08-25T16:17:26.631Z,34.35
2022-08-25T16:19:52.974Z,34.57
2022-08-25T16:22:19.326Z,34.65
2022-08-25T16:24:45.730Z,34.52
2022-08-25T16:27:12.995Z,34.42
2022-08-25T16:29:44.081Z,34.31
2022-08-25T16:32:13.301Z,34.30
2022-08-25T16:34:40.788Z,34.20
2022-08-25T16:37:08.524Z,34.10
2022-08-25T16:39:35.651Z,34.09
2022-08-25T16:42:02.061Z,34.15
2022-08-25T16:44:28.486Z,34.11
2022-08-25T16:46:55.274Z,34.06
2022-08-25T16:49:24.246Z,33.97
2022-08-25T16:51:57.228Z,33.86
2022-08-25T16:54:42.630Z,33.59
2022-08-25T16:57:09.020Z,33.43
2022-08-25T16:59:35.680Z,33.42
2022-08-25T17:02:02.205Z,33.37
2022-08-25T17:04:32.003Z,33.27
2022-08-25T17:06:58.819Z,33.03
2022-08-25T17:09:25.176Z,32.80
2022-08-25T17:11:56.513Z,32.77
2022-08-25T17:14:23.043Z,32.66
2022-08-25T17:16:51.060Z,32.67
2022-08-25T17:19:17.757Z,32.68
2022-08-25T17:21:46.150Z,32.58
2022-08-25T17:24:13.707Z,32.24
2022-08-25T17:26:42.866Z,32.03
2022-08-25T17:29:11.497Z,31.80
2022-08-25T17:31:40.052Z,31.61
2022-08-25T17:34:10.552Z,31.42
2022-08-25T17:36:37.271Z,31.26
2022-08-25T17:39:04.485Z,31.09
2022-08-25T17:41:33.495Z,30.92
2022-08-25T17:44:04.672Z,30.71
2022-08-25T17:46:31.148Z,30.49
2022-08-25T17:48:57.648Z,30.27
2022-08-25T17:51:25.204Z,30.13
2022-08-25T17:53:52.720Z,30.03
2022-08-25T17:56:21.877Z,29.92
2022-08-25T17:58:49.883Z,29.81
2022-08-25T18:01:22.375Z,29.71
2022-08-25T18:03:49.735Z,29.57
2022-08-25T18:06:17.316Z,29.41
2022-08-25T18:08:44.993Z,29.28
2022-08-25T18:11:19.676Z,29.29
2022-08-25T18:13:46.686Z,29.23
2022-08-25T18:16:14.099Z,29.04
2022-08-25T18:18:41.348Z,28.87
2022-08-25T18:21:17.853Z,28.75
2022-08-25T18:23:45.711Z,28.62
2022-08-25T18:26:14.727Z,28.55
2022-08-25T18:28:43.925Z,28.48
2022-08-25T18:31:11.978Z,28.32
2022-08-25T18:33:41.882Z,28.12
2022-08-25T18:36:09.762Z,28.04
2022-08-25T18:38:58.254Z,27.90
2022-08-25T18:41:26.094Z,27.72
2022-08-25T18:43:53.004Z,27.63
2022-08-25T18:46:19.617Z,27.53
2022-08-25T18:48:49.435Z,27.45
2022-08-25T18:51:22.849Z,27.33
2022-08-25T18:53:51.044Z,27.18
2022-08-25T18:56:19.165Z,27.08
2022-08-25T18:58:46.732Z,26.98
2022-08-25T19:01:18.266Z,26.92
2022-08-25T19:03:45.720Z,26.77
2022-08-25T19:06:12.323Z,26.69
2022-08-25T19:08:41.935Z,26.58
2022-08-25T19:11:09.662Z,26.48
2022-08-25T19:13:36.268Z,26.33
2022-08-25T19:16:13.837Z,26.25
2022-08-25T19:18:45.236Z,26.12
2022-08-25T19:21:11.933Z,26.00
2022-08-25T19:23:39.044Z,25.92
2022-08-25T19:26:07.795Z,25.85
2022-08-25T19:28:40.323Z,25.74
2022-08-25T19:31:12.544Z,25.64
2022-08-25T19:33:44.579Z,25.50
2022-08-25T19:36:12.737Z,25.51
2022-08-25T19:38:39.299Z,25.40
2022-08-25T19:41:14.067Z,25.28
2022-08-25T19:43:55.735Z,25.20
2022-08-25T19:46:32.963Z,25.08
2022-08-25T19:49:06.334Z,25.01
2022-08-25T19:51:34.661Z,24.94
2022-08-25T19:54:02.916Z,24.79
2022-08-25T19:56:30.963Z,24.67
2022-08-25T19:58:57.351Z,24.59
2022-08-25T20:01:24.244Z,24.53
2022-08-25T20:03:52.067Z,24.46
2022-08-25T20:06:18.959Z,24.41
2022-08-25T20:08:45.364Z,24.31
2022-08-25T20:11:12.740Z,24.27
2022-08-25T20:13:39.404Z,24.20
2022-08-25T20:16:05.933Z,24.13
2022-08-25T20:18:32.485Z,24.09
2022-08-25T20:20:58.998Z,24.04
2022-08-25T20:23:43.993Z,23.99
2022-08-25T20:26:10.382Z,23.87
2022-08-25T20:28:37.005Z,23.79
2022-08-25T20:31:03.471Z,23.69
2022-08-25T20:33:29.911Z,23.62
2022-08-25T20:35:56.664Z,23.50
2022-08-25T20:38:24.735Z,23.45
2022-08-25T20:40:53.133Z,23.35
2022-08-25T20:43:20.691Z,23.25
2022-08-25T20:45:47.361Z,23.17
2022-08-25T20:48:13.761Z,23.13
2022-08-25T20:50:40.176Z,23.03
2022-08-25T20:53:10.250Z,22.96
2022-08-25T20:55:43.714Z,22.87
2022-08-25T20:58:10.434Z,22.82
2022-08-25T21:00:36.823Z,22.79
2022-08-25T21:03:03.262Z,22.72
2022-08-25T21:05:29.968Z,22.65
2022-08-25T21:07:56.394Z,22.58
2022-08-25T21:10:23.424Z,22.52
2022-08-25T21:12:53.556Z,22.48
2022-08-25T21:15:20.404Z,22.44
2022-08-25T21:17:53.079Z,22.42
2022-08-25T21:20:23.601Z,22.38
2022-08-25T21:22:50.372Z,22.35
2022-08-25T21:25:18.047Z,22.29
2022-08-25T21:27:44.849Z,22.22
2022-08-25T21:30:14.810Z,22.17
2022-08-25T21:32:53.498Z,22.11
2022-08-25T21:35:21.191Z,22.04
2022-08-25T21:37:48.944Z,22.01
2022-08-25T21:40:20.905Z,22.00
2022-08-25T21:42:47.293Z,21.94
2022-08-25T21:45:14.021Z,21.91
2022-08-25T21:47:42.366Z,21.83
2022-08-25T21:50:11.250Z,21.81
2022-08-25T21:52:37.711Z,21.73
2022-08-25T21:55:06.026Z,21.72
2022-08-25T21:57:32.677Z,21.68
2022-08-25T22:00:07.843Z,21.64
2022-08-25T22:02:35.519Z,21.62
2022-08-25T22:05:01.958Z,21.58
2022-08-25T22:07:29.050Z,21.56
2022-08-25T22:10:01.119Z,21.51
2022-08-25T22:12:27.569Z,21.48
2022-08-25T22:14:53.969Z,21.45
2022-08-25T22:17:24.237Z,21.42
2022-08-25T22:19:53.650Z,21.42
2022-08-25T22:22:20.964Z,21.40
2022-08-25T22:24:47.574Z,21.45
2022-08-25T22:27:15.801Z,21.45
2022-08-25T22:29:43.763Z,21.42
2022-08-25T22:32:10.656Z,21.40
2022-08-25T22:34:40.324Z,21.35
2022-08-25T22:37:06.743Z,21.32
2022-08-25T22:39:34.847Z,21.27
2022-08-25T22:42:02.063Z,21.25
2022-08-25T22:44:28.530Z,21.22
2022-08-25T22:46:54.965Z,21.22
2022-08-25T22:49:21.658Z,21.20
2022-08-25T22:51:48.154Z,21.22
2022-08-25T22:54:15.612Z,21.21
2022-08-25T22:56:42.227Z,21.22
2022-08-25T22:59:11.677Z,21.19
2022-08-25T23:01:38.692Z,21.15
2022-08-25T23:04:06.654Z,21.16
2022-08-25T23:06:34.397Z,21.18
2022-08-25T23:09:05.832Z,21.15
2022-08-25T23:11:32.381Z,21.16
2022-08-25T23:14:05.365Z,21.13
2022-08-25T23:16:32.842Z,21.13
2022-08-25T23:18:59.707Z,21.09
2022-08-25T23:21:45.339Z,21.06
2022-08-25T23:24:13.271Z,21.04
2022-08-25T23:26:42.571Z,21.04
2022-08-25T23:29:17.790Z,21.05
2022-08-25T23:31:45.835Z,21.01
2022-08-25T23:34:14.065Z,20.99
2022-08-25T23:36:40.514Z,20.97
2022-08-25T23:39:07.897Z,21.02
2022-08-25T23:41:36.856Z,21.02
2022-08-25T23:44:05.257Z,20.94
2022-08-25T23:46:32.180Z,20.93
2022-08-25T23:48:58.549Z,20.93
2022-08-25T23:51:29.788Z,20.93
2022-08-25T23:53:57.296Z,20.91
2022-08-25T23:56:25.809Z,20.95
2022-08-25T23:58:52.239Z,20.94
